Aérodrome :
LOGIN :

S'inscrire | Disclaimer

   EN    FR    IT 

 










Légende :    VFR   VFR Marginal   IFR   IFR Intensif   IFR Très Intensif
Visi : 
Plafond : 
>= 8 km
>= 3000ft
5 à 8 km
1000 à 3000 ft
1500m à 5 km
500 à 1000 ft
800 à 1500m
200 à 500 ft
< 800m
< 200 ft
Symboles :   Orages  Brouillard  Fortes neiges  Fortes précipitations  Vent > 20 kt
SIGMETs :   Divers  Orages  Givrage  Turbulence  Onde Orograph.  Cendres Volcan.






- Altitude de l'aérodrome : 238 ft
- Code IATA : FAB


EGLF - Farnborough

DERNIER METAR :
  • 171650Z AUTO 22003KT 9999 NCD 02/01 Q1012

METARs EXPIRÉS :
  • 171620Z AUTO VRB01KT 9999 NCD 05/02 Q1012
  • 171550Z AUTO 02003KT 9999 NCD 06/02 Q1011
  • 171520Z AUTO 36005KT 9999 NCD 06/02 Q1011
  • 171450Z AUTO 36004KT 9999 NCD 07/03 Q1011

TAF TAF EGLF
Valide du 17 à 15h jusqu'au 17 à 20h UTC


171406Z 1715/1720 35005KT 9999 FEW030
BECMG 1719/1720 BKN012
ATIS : +44 09063 800 400 (*282)



MET'MAP, la Météo Aéronautique d'un coup d'oeil ! - Copyright ORBIFLY Décembre 2007 - Disclaimer

ORBIFLY MET'MAP TEAM :

Programmation & Développement : Alexandra Zaïnal
Conception & Développement : Baudouin d'Aumeries
Co-Programmation & Développement : Marc-Olivier Méhu
Soutien technique & logistique : Manuel Goepfert

Contact : metmap@orbifly.com




SOURCES & CREDITS :

   NOAA